sensor_id;sensor_type;location;lat;lon;timestamp;pressure;altitude;pressure_sealevel;temperature;humidity
62978;BME280;49073;42.352;23.808;2022-12-10T00:00:29;94200.47;;;3.32;100.00
62978;BME280;49073;42.352;23.808;2022-12-10T00:03:30;94207.03;;;3.26;100.00
62978;BME280;49073;42.352;23.808;2022-12-10T00:06:33;94201.81;;;3.47;100.00
62978;BME280;49073;42.352;23.808;2022-12-10T00:09:34;94193.19;;;3.38;100.00
62978;BME280;49073;42.352;23.808;2022-12-10T00:12:34;94197.84;;;3.32;100.00
62978;BME280;49073;42.352;23.808;2022-12-10T00:15:35;94200.22;;;3.25;100.00
62978;BME280;49073;42.352;23.808;2022-12-10T00:18:36;94208.41;;;2.85;100.00
62978;BME280;49073;42.352;23.808;2022-12-10T00:21:37;94205.88;;;3.06;100.00
62978;BME280;49073;42.352;23.808;2022-12-10T00:24:37;94187.69;;;3.22;100.00
62978;BME280;49073;42.352;23.808;2022-12-10T00:27:38;94182.56;;;3.26;100.00
62978;BME280;49073;42.352;23.808;2022-12-10T00:30:39;94188.16;;;3.15;100.00
62978;BME280;49073;42.352;23.808;2022-12-10T00:33:40;94186.09;;;3.30;100.00
62978;BME280;49073;42.352;23.808;2022-12-10T00:36:46;94182.41;;;3.22;100.00
62978;BME280;49073;42.352;23.808;2022-12-10T00:39:48;94184.88;;;3.27;100.00
62978;BME280;49073;42.352;23.808;2022-12-10T00:42:49;94192.34;;;3.16;100.00
62978;BME280;49073;42.352;23.808;2022-12-10T00:45:50;94196.03;;;3.24;100.00
62978;BME280;49073;42.352;23.808;2022-12-10T00:48:50;94192.75;;;3.27;100.00
62978;BME280;49073;42.352;23.808;2022-12-10T00:51:51;94186.84;;;3.30;100.00
62978;BME280;49073;42.352;23.808;2022-12-10T00:54:51;94184.88;;;3.27;100.00
62978;BME280;49073;42.352;23.808;2022-12-10T00:57:52;94195.56;;;3.22;100.00
62978;BME280;49073;42.352;23.808;2022-12-10T01:00:52;94187.13;;;3.08;100.00
62978;BME280;49073;42.352;23.808;2022-12-10T01:03:57;94199.66;;;3.11;100.00
62978;BME280;49073;42.352;23.808;2022-12-10T01:06:57;94199.66;;;3.11;100.00
62978;BME280;49073;42.352;23.808;2022-12-10T01:09:59;94197.16;;;3.14;100.00
62978;BME280;49073;42.352;23.808;2022-12-10T01:13:00;94185.94;;;3.26;100.00
62978;BME280;49073;42.352;23.808;2022-12-10T01:16:02;94182.72;;;3.20;100.00
62978;BME280;49073;42.352;23.808;2022-12-10T01:19:04;94180.75;;;3.39;100.00
62978;BME280;49073;42.352;23.808;2022-12-10T01:22:05;94182.72;;;3.20;100.00
62978;BME280;49073;42.352;23.808;2022-12-10T01:25:06;94181.06;;;3.16;100.00
62978;BME280;49073;42.352;23.808;2022-12-10T01:28:07;94160.84;;;3.29;100.00
62978;BME280;49073;42.352;23.808;2022-12-10T01:31:34;94169.31;;;3.34;100.00
62978;BME280;49073;42.352;23.808;2022-12-10T01:34:33;94160.84;;;3.29;100.00
62978;BME280;49073;42.352;23.808;2022-12-10T01:37:33;94155.22;;;3.09;100.00
62978;BME280;49073;42.352;23.808;2022-12-10T01:40:37;94152.13;;;3.07;100.00
62978;BME280;49073;42.352;23.808;2022-12-10T01:47:08;94162.41;;;3.30;100.00
62978;BME280;49073;42.352;23.808;2022-12-10T01:50:09;94165.63;;;3.05;100.00
62978;BME280;49073;42.352;23.808;2022-12-10T01:53:11;94164.44;;;3.24;100.00
62978;BME280;49073;42.352;23.808;2022-12-10T01:56:12;94160.75;;;3.16;100.00
62978;BME280;49073;42.352;23.808;2022-12-10T01:59:13;94157.19;;;3.21;100.00
62978;BME280;49073;42.352;23.808;2022-12-10T02:05:45;94174.25;;;3.15;100.00
62978;BME280;49073;42.352;23.808;2022-12-10T02:09:11;94167.38;;;3.23;100.00
62978;BME280;49073;42.352;23.808;2022-12-10T02:12:51;94148.94;;;3.23;100.00
62978;BME280;49073;42.352;23.808;2022-12-10T02:15:52;94142.78;;;3.18;100.00
62978;BME280;49073;42.352;23.808;2022-12-10T02:19:12;94145.78;;;3.38;100.00
62978;BME280;49073;42.352;23.808;2022-12-10T02:22:16;94139.34;;;3.48;100.00
62978;BME280;49073;42.352;23.808;2022-12-10T02:25:21;94135.44;;;3.33;100.00
62978;BME280;49073;42.352;23.808;2022-12-10T02:28:40;94153.25;;;3.27;100.00
62978;BME280;49073;42.352;23.808;2022-12-10T02:31:50;94154.69;;;3.46;100.00
62978;BME280;49073;42.352;23.808;2022-12-10T02:34:57;94145.66;;;3.56;100.00
62978;BME280;49073;42.352;23.808;2022-12-10T02:38:10;94150.41;;;3.62;100.00
62978;BME280;49073;42.352;23.808;2022-12-10T02:41:35;94146.69;;;3.63;100.00
62978;BME280;49073;42.352;23.808;2022-12-10T02:44:40;94143.28;;;3.63;100.00
62978;BME280;49073;42.352;23.808;2022-12-10T02:47:42;94126.06;;;3.66;100.00
62978;BME280;49073;42.352;23.808;2022-12-10T02:50:43;94132.16;;;3.57;100.00
62978;BME280;49073;42.352;23.808;2022-12-10T02:53:45;94134.03;;;3.57;100.00
62978;BME280;49073;42.352;23.808;2022-12-10T02:56:53;94118.06;;;3.74;100.00
62978;BME280;49073;42.352;23.808;2022-12-10T03:06:22;94128.09;;;3.60;100.00
62978;BME280;49073;42.352;23.808;2022-12-10T03:09:39;94127.25;;;3.47;100.00
62978;BME280;49073;42.352;23.808;2022-12-10T03:12:47;94125.88;;;3.71;100.00
62978;BME280;49073;42.352;23.808;2022-12-10T03:15:51;94114.28;;;3.63;100.00
62978;BME280;49073;42.352;23.808;2022-12-10T03:18:57;94115.31;;;3.71;100.00
62978;BME280;49073;42.352;23.808;2022-12-10T03:22:01;94103.09;;;3.87;100.00
62978;BME280;49073;42.352;23.808;2022-12-10T03:25:04;94091.88;;;3.90;100.00
62978;BME280;49073;42.352;23.808;2022-12-10T03:28:06;94104.38;;;3.81;100.00
62978;BME280;49073;42.352;23.808;2022-12-10T03:31:10;94119.50;;;3.72;100.00
62978;BME280;49073;42.352;23.808;2022-12-10T03:34:13;94101.41;;;3.83;100.00
62978;BME280;49073;42.352;23.808;2022-12-10T03:37:14;94100.16;;;3.68;100.00
62978;BME280;49073;42.352;23.808;2022-12-10T03:40:17;94114.44;;;3.67;100.00
62978;BME280;49073;42.352;23.808;2022-12-10T03:43:21;94113.63;;;3.87;100.00
62978;BME280;49073;42.352;23.808;2022-12-10T03:46:23;94116.25;;;3.87;100.00
62978;BME280;49073;42.352;23.808;2022-12-10T03:49:24;94130.16;;;3.75;100.00
62978;BME280;49073;42.352;23.808;2022-12-10T03:52:25;94105.88;;;3.70;100.00
62978;BME280;49073;42.352;23.808;2022-12-10T03:55:25;94110.22;;;3.87;100.00
62978;BME280;49073;42.352;23.808;2022-12-10T03:58:26;94094.53;;;3.90;100.00
62978;BME280;49073;42.352;23.808;2022-12-10T04:01:26;94087.00;;;4.01;100.00
62978;BME280;49073;42.352;23.808;2022-12-10T04:04:27;94096.66;;;3.97;100.00
62978;BME280;49073;42.352;23.808;2022-12-10T04:07:27;94102.06;;;3.79;100.00
62978;BME280;49073;42.352;23.808;2022-12-10T04:10:28;94085.50;;;3.79;100.00
62978;BME280;49073;42.352;23.808;2022-12-10T04:13:31;94102.56;;;3.94;100.00
62978;BME280;49073;42.352;23.808;2022-12-10T04:16:50;94098.63;;;4.00;100.00
62978;BME280;49073;42.352;23.808;2022-12-10T04:19:52;94091.66;;;3.83;100.00
62978;BME280;49073;42.352;23.808;2022-12-10T04:22:52;94087.03;;;3.80;100.00
62978;BME280;49073;42.352;23.808;2022-12-10T04:26:11;94080.91;;;3.88;100.00
62978;BME280;49073;42.352;23.808;2022-12-10T04:29:30;94089.53;;;4.10;100.00
62978;BME280;49073;42.352;23.808;2022-12-10T04:32:31;94087.88;;;4.05;100.00
62978;BME280;49073;42.352;23.808;2022-12-10T04:35:31;94092.91;;;3.98;100.00
62978;BME280;49073;42.352;23.808;2022-12-10T04:38:32;94094.75;;;3.98;100.00
62978;BME280;49073;42.352;23.808;2022-12-10T04:41:32;94110.72;;;4.01;100.00
62978;BME280;49073;42.352;23.808;2022-12-10T04:44:34;94114.56;;;4.04;100.00
62978;BME280;49073;42.352;23.808;2022-12-10T04:47:34;94119.34;;;4.23;100.00
62978;BME280;49073;42.352;23.808;2022-12-10T04:50:35;94117.72;;;4.31;100.00
62978;BME280;49073;42.352;23.808;2022-12-10T04:53:35;94106.81;;;4.32;100.00
62978;BME280;49073;42.352;23.808;2022-12-10T04:56:36;94095.63;;;4.35;100.00
62978;BME280;49073;42.352;23.808;2022-12-10T04:59:37;94091.44;;;4.22;100.00
62978;BME280;49073;42.352;23.808;2022-12-10T05:02:37;94085.41;;;4.21;100.00
62978;BME280;49073;42.352;23.808;2022-12-10T05:05:38;94090.66;;;4.21;100.00
62978;BME280;49073;42.352;23.808;2022-12-10T05:08:39;94091.31;;;4.18;100.00
62978;BME280;49073;42.352;23.808;2022-12-10T05:11:41;94100.34;;;4.17;100.00
62978;BME280;49073;42.352;23.808;2022-12-10T05:14:44;94112.53;;;4.22;100.00
62978;BME280;49073;42.352;23.808;2022-12-10T05:17:45;94106.66;;;4.04;100.00
62978;BME280;49073;42.352;23.808;2022-12-10T05:20:45;94104.25;;;4.11;100.00
62978;BME280;49073;42.352;23.808;2022-12-10T05:23:48;94108.13;;;4.26;100.00
62978;BME280;49073;42.352;23.808;2022-12-10T05:26:49;94081.09;;;4.29;100.00
62978;BME280;49073;42.352;23.808;2022-12-10T05:29:51;94076.19;;;4.40;100.00
62978;BME280;49073;42.352;23.808;2022-12-10T05:32:52;94080.22;;;4.25;100.00
62978;BME280;49073;42.352;23.808;2022-12-10T05:35:58;94075.94;;;4.20;100.00
62978;BME280;49073;42.352;23.808;2022-12-10T05:38:59;94062.34;;;4.31;100.00
62978;BME280;49073;42.352;23.808;2022-12-10T05:42:00;94063.13;;;4.44;100.00
62978;BME280;49073;42.352;23.808;2022-12-10T05:45:00;94074.63;;;4.27;100.00
62978;BME280;49073;42.352;23.808;2022-12-10T05:48:00;94084.22;;;4.44;100.00
62978;BME280;49073;42.352;23.808;2022-12-10T05:51:09;94084.78;;;4.49;100.00
62978;BME280;49073;42.352;23.808;2022-12-10T05:54:10;94091.13;;;4.36;100.00
62978;BME280;49073;42.352;23.808;2022-12-10T05:57:11;94099.13;;;4.27;100.00
62978;BME280;49073;42.352;23.808;2022-12-10T06:00:12;94101.59;;;4.45;100.00
62978;BME280;49073;42.352;23.808;2022-12-10T06:03:13;94108.06;;;4.47;100.00
62978;BME280;49073;42.352;23.808;2022-12-10T06:06:13;94107.75;;;4.49;100.00
62978;BME280;49073;42.352;23.808;2022-12-10T06:09:14;94103.56;;;4.48;100.00
62978;BME280;49073;42.352;23.808;2022-12-10T06:12:15;94095.84;;;4.30;100.00
62978;BME280;49073;42.352;23.808;2022-12-10T06:15:15;94098.38;;;4.27;100.00
62978;BME280;49073;42.352;23.808;2022-12-10T06:18:16;94100.91;;;4.35;100.00
62978;BME280;49073;42.352;23.808;2022-12-10T06:21:18;94077.41;;;4.55;100.00
62978;BME280;49073;42.352;23.808;2022-12-10T06:24:19;94079.41;;;4.46;100.00
62978;BME280;49073;42.352;23.808;2022-12-10T06:27:20;94086.41;;;4.42;100.00
62978;BME280;49073;42.352;23.808;2022-12-10T06:30:20;94088.06;;;4.34;100.00
62978;BME280;49073;42.352;23.808;2022-12-10T06:33:21;94082.34;;;4.57;100.00
62978;BME280;49073;42.352;23.808;2022-12-10T06:36:21;94085.19;;;4.39;100.00
62978;BME280;49073;42.352;23.808;2022-12-10T06:39:22;94089.59;;;4.60;100.00
62978;BME280;49073;42.352;23.808;2022-12-10T06:42:22;94091.81;;;4.70;100.00
62978;BME280;49073;42.352;23.808;2022-12-10T06:45:23;94098.41;;;4.51;100.00
62978;BME280;49073;42.352;23.808;2022-12-10T06:48:23;94100.81;;;4.57;100.00
62978;BME280;49073;42.352;23.808;2022-12-10T06:51:24;94099.94;;;4.65;100.00
62978;BME280;49073;42.352;23.808;2022-12-10T06:54:25;94109.22;;;4.84;100.00
62978;BME280;49073;42.352;23.808;2022-12-10T06:57:25;94096.44;;;4.86;100.00
62978;BME280;49073;42.352;23.808;2022-12-10T07:00:26;94092.69;;;4.99;100.00
62978;BME280;49073;42.352;23.808;2022-12-10T07:03:26;94096.31;;;4.94;100.00
62978;BME280;49073;42.352;23.808;2022-12-10T07:06:27;94096.44;;;4.86;100.00
62978;BME280;49073;42.352;23.808;2022-12-10T07:09:30;94092.91;;;5.06;100.00
62978;BME280;49073;42.352;23.808;2022-12-10T07:12:32;94094.22;;;5.13;100.00
62978;BME280;49073;42.352;23.808;2022-12-10T07:15:32;94092.78;;;5.28;100.00
62978;BME280;49073;42.352;23.808;2022-12-10T07:18:34;94085.91;;;5.39;100.00
62978;BME280;49073;42.352;23.808;2022-12-10T07:21:36;94076.25;;;5.31;100.00
62978;BME280;49073;42.352;23.808;2022-12-10T07:24:37;94078.34;;;5.25;100.00
62978;BME280;49073;42.352;23.808;2022-12-10T07:27:37;94068.59;;;5.13;100.00
62978;BME280;49073;42.352;23.808;2022-12-10T07:30:38;94072.88;;;5.05;100.00
62978;BME280;49073;42.352;23.808;2022-12-10T07:33:38;94080.59;;;5.10;100.00
62978;BME280;49073;42.352;23.808;2022-12-10T07:36:39;94079.63;;;5.03;100.00
62978;BME280;49073;42.352;23.808;2022-12-10T07:39:40;94089.50;;;5.06;100.00
62978;BME280;49073;42.352;23.808;2022-12-10T07:42:43;94076.19;;;5.02;100.00
62978;BME280;49073;42.352;23.808;2022-12-10T07:45:43;94078.25;;;5.21;100.00
62978;BME280;49073;42.352;23.808;2022-12-10T07:48:45;94092.22;;;5.34;100.00
62978;BME280;49073;42.352;23.808;2022-12-10T07:51:47;94095.50;;;5.44;100.00
62978;BME280;49073;42.352;23.808;2022-12-10T07:54:47;94103.19;;;5.49;100.00
62978;BME280;49073;42.352;23.808;2022-12-10T07:57:48;94106.06;;;5.44;100.00
62978;BME280;49073;42.352;23.808;2022-12-10T08:00:49;94100.63;;;5.52;100.00
62978;BME280;49073;42.352;23.808;2022-12-10T08:03:50;94086.09;;;5.87;100.00
62978;BME280;49073;42.352;23.808;2022-12-10T08:06:54;94091.19;;;6.08;100.00
62978;BME280;49073;42.352;23.808;2022-12-10T08:09:54;94093.22;;;6.28;100.00
62978;BME280;49073;42.352;23.808;2022-12-10T08:12:55;94074.69;;;6.44;100.00
62978;BME280;49073;42.352;23.808;2022-12-10T08:16:14;94061.28;;;6.68;100.00
62978;BME280;49073;42.352;23.808;2022-12-10T08:19:15;94055.03;;;6.77;100.00
62978;BME280;49073;42.352;23.808;2022-12-10T08:22:16;94058.72;;;6.88;100.00
62978;BME280;49073;42.352;23.808;2022-12-10T08:25:17;94062.09;;;7.05;100.00
62978;BME280;49073;42.352;23.808;2022-12-10T08:28:17;94050.22;;;7.15;100.00
62978;BME280;49073;42.352;23.808;2022-12-10T08:31:20;94048.19;;;6.76;100.00
62978;BME280;49073;42.352;23.808;2022-12-10T08:34:21;94044.31;;;6.53;100.00
62978;BME280;49073;42.352;23.808;2022-12-10T08:37:22;94044.81;;;6.43;100.00
62978;BME280;49073;42.352;23.808;2022-12-10T08:40:23;94050.31;;;6.50;100.00
62978;BME280;49073;42.352;23.808;2022-12-10T08:43:23;94061.31;;;6.36;100.00
62978;BME280;49073;42.352;23.808;2022-12-10T08:46:24;94064.97;;;6.32;100.00
62978;BME280;49073;42.352;23.808;2022-12-10T08:49:26;94071.38;;;6.47;100.00
62978;BME280;49073;42.352;23.808;2022-12-10T08:52:27;94060.66;;;7.07;100.00
62978;BME280;49073;42.352;23.808;2022-12-10T08:55:29;94054.53;;;7.62;100.00
62978;BME280;49073;42.352;23.808;2022-12-10T08:58:30;94057.97;;;8.02;100.00
62978;BME280;49073;42.352;23.808;2022-12-10T09:01:30;94041.19;;;8.41;100.00
62978;BME280;49073;42.352;23.808;2022-12-10T09:04:31;94037.16;;;8.74;100.00
62978;BME280;49073;42.352;23.808;2022-12-10T09:07:31;94034.44;;;8.97;100.00
62978;BME280;49073;42.352;23.808;2022-12-10T09:10:32;94034.06;;;9.26;100.00
62978;BME280;49073;42.352;23.808;2022-12-10T09:13:33;94033.56;;;9.47;100.00
62978;BME280;49073;42.352;23.808;2022-12-10T09:16:36;94034.53;;;9.62;100.00
62978;BME280;49073;42.352;23.808;2022-12-10T09:19:36;94019.63;;;9.92;100.00
62978;BME280;49073;42.352;23.808;2022-12-10T09:22:37;94021.06;;;10.23;100.00
62978;BME280;49073;42.352;23.808;2022-12-10T09:25:37;94013.03;;;10.19;100.00
62978;BME280;49073;42.352;23.808;2022-12-10T09:28:38;94004.19;;;10.04;100.00
62978;BME280;49073;42.352;23.808;2022-12-10T09:31:39;93989.28;;;10.00;100.00
62978;BME280;49073;42.352;23.808;2022-12-10T09:34:40;93979.88;;;10.10;100.00
62978;BME280;49073;42.352;23.808;2022-12-10T09:37:41;93967.38;;;10.14;100.00
62978;BME280;49073;42.352;23.808;2022-12-10T09:41:01;93964.38;;;10.19;99.11
62978;BME280;49073;42.352;23.808;2022-12-10T09:51:23;93942.00;;;9.82;97.97
62978;BME280;49073;42.352;23.808;2022-12-10T09:54:29;93930.97;;;9.80;98.98
62978;BME280;49073;42.352;23.808;2022-12-10T09:57:36;93936.28;;;9.84;99.28
62978;BME280;49073;42.352;23.808;2022-12-10T10:00:40;93924.63;;;9.99;100.00
62978;BME280;49073;42.352;23.808;2022-12-10T10:03:42;93919.91;;;10.27;99.18
62978;BME280;49073;42.352;23.808;2022-12-10T10:06:42;93924.25;;;10.42;98.02
62978;BME280;49073;42.352;23.808;2022-12-10T10:09:44;93929.94;;;10.41;96.27
62978;BME280;49073;42.352;23.808;2022-12-10T10:12:45;93920.16;;;10.59;94.22
62978;BME280;49073;42.352;23.808;2022-12-10T10:15:47;93905.41;;;10.73;93.56
62978;BME280;49073;42.352;23.808;2022-12-10T10:18:54;93895.22;;;10.93;93.59
62978;BME280;49073;42.352;23.808;2022-12-10T10:21:55;93891.09;;;11.06;92.04
62978;BME280;49073;42.352;23.808;2022-12-10T10:24:56;93889.22;;;11.22;87.94
62978;BME280;49073;42.352;23.808;2022-12-10T10:27:57;93894.97;;;11.34;85.70
62978;BME280;49073;42.352;23.808;2022-12-10T10:30:58;93878.22;;;11.45;85.25
62978;BME280;49073;42.352;23.808;2022-12-10T10:34:01;93876.34;;;11.53;86.11
62978;BME280;49073;42.352;23.808;2022-12-10T10:37:03;93864.91;;;11.56;86.88
62978;BME280;49073;42.352;23.808;2022-12-10T10:40:04;93866.06;;;11.62;84.72
62978;BME280;49073;42.352;23.808;2022-12-10T10:43:05;93860.75;;;11.73;84.68
62978;BME280;49073;42.352;23.808;2022-12-10T10:46:25;93847.78;;;12.04;84.71
62978;BME280;49073;42.352;23.808;2022-12-10T10:49:32;93841.69;;;12.14;82.18
62978;BME280;49073;42.352;23.808;2022-12-10T10:52:37;93846.66;;;12.16;80.73
62978;BME280;49073;42.352;23.808;2022-12-10T10:55:40;93847.41;;;12.05;81.13
62978;BME280;49073;42.352;23.808;2022-12-10T11:02:29;93851.56;;;11.63;83.08
62978;BME280;49073;42.352;23.808;2022-12-10T11:05:30;93850.78;;;11.30;84.85
62978;BME280;49073;42.352;23.808;2022-12-10T11:08:35;93851.91;;;11.29;85.82
62978;BME280;49073;42.352;23.808;2022-12-10T11:11:40;93844.28;;;11.31;86.53
62978;BME280;49073;42.352;23.808;2022-12-10T11:14:44;93843.84;;;11.14;86.96
62978;BME280;49073;42.352;23.808;2022-12-10T11:17:47;93842.66;;;10.90;86.73
62978;BME280;49073;42.352;23.808;2022-12-10T11:21:18;93836.19;;;10.91;88.40
62978;BME280;49073;42.352;23.808;2022-12-10T11:24:20;93826.25;;;10.88;88.93
62978;BME280;49073;42.352;23.808;2022-12-10T11:28:00;93820.16;;;10.84;89.56
62978;BME280;49073;42.352;23.808;2022-12-10T11:34:37;93814.03;;;10.72;90.90
62978;BME280;49073;42.352;23.808;2022-12-10T11:44:20;93787.34;;;10.58;92.28
62978;BME280;49073;42.352;23.808;2022-12-10T11:47:44;93785.41;;;10.58;91.80
62978;BME280;49073;42.352;23.808;2022-12-10T11:51:00;93787.31;;;10.51;92.03
62978;BME280;49073;42.352;23.808;2022-12-10T12:00:58;93783.47;;;10.48;92.13
62978;BME280;49073;42.352;23.808;2022-12-10T12:14:29;93786.91;;;10.52;92.30
62978;BME280;49073;42.352;23.808;2022-12-10T12:17:34;93778.56;;;10.54;91.52
62978;BME280;49073;42.352;23.808;2022-12-10T12:20:55;93778.91;;;10.45;91.98
62978;BME280;49073;42.352;23.808;2022-12-10T12:24:15;93776.63;;;10.43;92.08
62978;BME280;49073;42.352;23.808;2022-12-10T12:27:35;93753.84;;;10.57;92.29
62978;BME280;49073;42.352;23.808;2022-12-10T12:30:39;93745.53;;;10.80;90.68
62978;BME280;49073;42.352;23.808;2022-12-10T12:34:21;93744.00;;;10.79;90.23
62978;BME280;49073;42.352;23.808;2022-12-10T12:37:25;93733.75;;;10.81;90.68
62978;BME280;49073;42.352;23.808;2022-12-10T12:40:41;93734.84;;;10.69;90.35
62978;BME280;49073;42.352;23.808;2022-12-10T12:43:52;93721.53;;;10.73;90.81
62978;BME280;49073;42.352;23.808;2022-12-10T12:47:04;93733.66;;;10.52;90.97
62978;BME280;49073;42.352;23.808;2022-12-10T12:50:24;93730.97;;;10.41;91.97
62978;BME280;49073;42.352;23.808;2022-12-10T12:53:25;93716.53;;;10.57;92.33
62978;BME280;49073;42.352;23.808;2022-12-10T13:06:29;93743.41;;;10.26;95.34
62978;BME280;49073;42.352;23.808;2022-12-10T13:09:31;93732.34;;;10.21;96.45
62978;BME280;49073;42.352;23.808;2022-12-10T13:12:49;93721.34;;;10.26;96.97
62978;BME280;49073;42.352;23.808;2022-12-10T13:15:50;93721.34;;;10.26;97.85
62978;BME280;49073;42.352;23.808;2022-12-10T13:26:03;93709.25;;;10.39;97.35
62978;BME280;49073;42.352;23.808;2022-12-10T13:29:23;93714.06;;;10.15;97.71
62978;BME280;49073;42.352;23.808;2022-12-10T13:35:31;93717.03;;;9.99;97.61
62978;BME280;49073;42.352;23.808;2022-12-10T13:38:39;93704.91;;;10.02;97.23
62978;BME280;49073;42.352;23.808;2022-12-10T13:42:20;93704.13;;;9.98;97.75
62978;BME280;49073;42.352;23.808;2022-12-10T13:48:31;93706.72;;;9.87;99.12
62978;BME280;49073;42.352;23.808;2022-12-10T13:51:48;93698.03;;;9.97;99.19
62978;BME280;49073;42.352;23.808;2022-12-10T13:55:02;93687.09;;;10.17;98.17
62978;BME280;49073;42.352;23.808;2022-12-10T13:58:37;93682.09;;;10.04;97.72
62978;BME280;49073;42.352;23.808;2022-12-10T14:08:32;93676.66;;;9.79;99.31
62978;BME280;49073;42.352;23.808;2022-12-10T14:11:51;93669.13;;;9.96;100.00
62978;BME280;49073;42.352;23.808;2022-12-10T14:14:59;93677.84;;;9.85;99.63
62978;BME280;49073;42.352;23.808;2022-12-10T14:18:03;93676.59;;;9.68;100.00
62978;BME280;49073;42.352;23.808;2022-12-10T14:21:07;93672.72;;;9.58;100.00
62978;BME280;49073;42.352;23.808;2022-12-10T14:24:28;93672.84;;;9.73;100.00
62978;BME280;49073;42.352;23.808;2022-12-10T14:27:29;93674.34;;;9.74;100.00
62978;BME280;49073;42.352;23.808;2022-12-10T14:30:29;93657.19;;;9.68;100.00
62978;BME280;49073;42.352;23.808;2022-12-10T14:33:30;93643.91;;;9.68;100.00
62978;BME280;49073;42.352;23.808;2022-12-10T14:36:33;93638.19;;;9.62;100.00
62978;BME280;49073;42.352;23.808;2022-12-10T14:39:37;93644.63;;;9.57;100.00
62978;BME280;49073;42.352;23.808;2022-12-10T14:42:39;93644.97;;;9.49;100.00
62978;BME280;49073;42.352;23.808;2022-12-10T14:45:59;93642.16;;;9.27;100.00
62978;BME280;49073;42.352;23.808;2022-12-10T14:49:00;93637.22;;;9.29;100.00
62978;BME280;49073;42.352;23.808;2022-12-10T14:52:01;93640.53;;;9.11;100.00
62978;BME280;49073;42.352;23.808;2022-12-10T14:55:03;93629.16;;;9.14;100.00
62978;BME280;49073;42.352;23.808;2022-12-10T14:58:04;93628.03;;;9.15;100.00
62978;BME280;49073;42.352;23.808;2022-12-10T15:01:28;93621.84;;;9.00;100.00
62978;BME280;49073;42.352;23.808;2022-12-10T15:04:41;93621.88;;;9.04;100.00
62978;BME280;49073;42.352;23.808;2022-12-10T15:07:54;93615.03;;;9.03;100.00
62978;BME280;49073;42.352;23.808;2022-12-10T15:10:59;93608.56;;;8.97;100.00
62978;BME280;49073;42.352;23.808;2022-12-10T15:14:02;93613.78;;;8.86;100.00
62978;BME280;49073;42.352;23.808;2022-12-10T15:17:03;93626.56;;;8.73;100.00
62978;BME280;49073;42.352;23.808;2022-12-10T15:23:49;93597.94;;;8.52;100.00
62978;BME280;49073;42.352;23.808;2022-12-10T15:26:51;93595.81;;;8.68;100.00
62978;BME280;49073;42.352;23.808;2022-12-10T15:29:52;93594.13;;;8.49;100.00
62978;BME280;49073;42.352;23.808;2022-12-10T15:32:52;93602.94;;;8.61;100.00
62978;BME280;49073;42.352;23.808;2022-12-10T15:35:54;93595.78;;;8.65;100.00
62978;BME280;49073;42.352;23.808;2022-12-10T15:38:55;93586.47;;;8.44;100.00
62978;BME280;49073;42.352;23.808;2022-12-10T15:41:58;93585.44;;;8.52;100.00
62978;BME280;49073;42.352;23.808;2022-12-10T15:45:08;93583.81;;;8.44;100.00
62978;BME280;49073;42.352;23.808;2022-12-10T15:48:12;93581.03;;;8.29;100.00
62978;BME280;49073;42.352;23.808;2022-12-10T15:51:13;93580.72;;;8.35;100.00
62978;BME280;49073;42.352;23.808;2022-12-10T15:54:34;93577.69;;;8.36;100.00
62978;BME280;49073;42.352;23.808;2022-12-10T15:57:37;93575.41;;;8.35;100.00
62978;BME280;49073;42.352;23.808;2022-12-10T16:00:49;93571.25;;;8.37;100.00
62978;BME280;49073;42.352;23.808;2022-12-10T16:03:50;93555.75;;;8.43;100.00
62978;BME280;49073;42.352;23.808;2022-12-10T16:06:50;93570.09;;;8.35;100.00
62978;BME280;49073;42.352;23.808;2022-12-10T16:09:51;93565.53;;;8.35;100.00
62978;BME280;49073;42.352;23.808;2022-12-10T16:13:16;93565.59;;;8.42;100.00
62978;BME280;49073;42.352;23.808;2022-12-10T16:16:17;93569.16;;;8.57;100.00
62978;BME280;49073;42.352;23.808;2022-12-10T16:19:18;93565.59;;;8.42;100.00
62978;BME280;49073;42.352;23.808;2022-12-10T16:22:19;93561.88;;;8.51;100.00
62978;BME280;49073;42.352;23.808;2022-12-10T16:25:20;93562.53;;;8.37;100.00
62978;BME280;49073;42.352;23.808;2022-12-10T16:28:23;93561.66;;;8.25;100.00
62978;BME280;49073;42.352;23.808;2022-12-10T16:31:23;93555.75;;;8.43;100.00
62978;BME280;49073;42.352;23.808;2022-12-10T16:34:24;93551.22;;;8.47;100.00
62978;BME280;49073;42.352;23.808;2022-12-10T16:37:24;93558.69;;;8.34;100.00
62978;BME280;49073;42.352;23.808;2022-12-10T16:40:26;93553.28;;;8.23;100.00
62978;BME280;49073;42.352;23.808;2022-12-10T16:43:28;93561.28;;;8.27;100.00
62978;BME280;49073;42.352;23.808;2022-12-10T16:46:29;93557.56;;;8.35;100.00
62978;BME280;49073;42.352;23.808;2022-12-10T16:49:29;93551.81;;;8.26;100.00
62978;BME280;49073;42.352;23.808;2022-12-10T16:52:30;93546.84;;;8.21;100.00
62978;BME280;49073;42.352;23.808;2022-12-10T16:55:31;93549.66;;;8.42;100.00
62978;BME280;49073;42.352;23.808;2022-12-10T16:58:33;93539.75;;;8.36;100.00
62978;BME280;49073;42.352;23.808;2022-12-10T17:01:34;93521.63;;;8.45;100.00
62978;BME280;49073;42.352;23.808;2022-12-10T17:04:35;93510.91;;;8.34;100.00
62978;BME280;49073;42.352;23.808;2022-12-10T17:07:35;93495.03;;;8.41;100.00
62978;BME280;49073;42.352;23.808;2022-12-10T17:10:36;93504.00;;;8.22;100.00
62978;BME280;49073;42.352;23.808;2022-12-10T17:13:55;93492.72;;;8.33;100.00
62978;BME280;49073;42.352;23.808;2022-12-10T17:16:57;93483.25;;;8.32;100.00
62978;BME280;49073;42.352;23.808;2022-12-10T17:19:58;93471.75;;;8.17;100.00
62978;BME280;49073;42.352;23.808;2022-12-10T17:22:58;93477.34;;;8.04;100.00
62978;BME280;49073;42.352;23.808;2022-12-10T17:25:59;93477.97;;;7.90;100.00
62978;BME280;49073;42.352;23.808;2022-12-10T17:29:08;93473.41;;;7.91;100.00